Time;durP1;ratioP1;P1;durP2;ratioP2;P2;SDS_P1;SDS_P2;PMS_P1;PMS_P2;Temp;Humidity;BMP_temperature;BMP_pressure;BME280_temperature;BME280_humidity;BME280_pressure;Samples;Min_cycle;Max_cycle;Signal;HPM_P1;HPM_P2
2022/10/26 00:04:10;;;;;;;15.30;6.72;;;;;;;9.97;100.00;101225.31;5114252;28;20100;-75
2022/10/26 00:06:35;;;;;;;9.37;5.83;;;;;;;9.98;100.00;101219.78;5113872;28;20472;-76
2022/10/26 00:09:01;;;;;;;9.75;7.13;;;;;;;9.94;100.00;101208.69;5116786;28;20284;-76
2022/10/26 00:11:26;;;;;;;11.73;6.43;;;;;;;9.93;100.00;101207.03;5113935;28;20023;-76
2022/10/26 00:13:51;;;;;;;10.63;6.72;;;;;;;9.99;100.00;101205.41;5095655;28;20277;-77
2022/10/26 00:16:24;;;;;;;16.45;6.90;;;;;;;10.05;100.00;101201.09;5116781;28;20070;-76
2022/10/26 00:18:49;;;;;;;9.70;5.85;;;;;;;10.04;100.00;101194.09;5095240;28;20028;-76
2022/10/26 00:21:15;;;;;;;9.98;5.40;;;;;;;10.14;100.00;101195.38;5094803;28;20073;-76
2022/10/26 00:23:40;;;;;;;12.00;6.47;;;;;;;10.07;100.00;101181.16;5113619;28;20024;-77
2022/10/26 00:26:06;;;;;;;11.48;6.32;;;;;;;10.13;100.00;101185.72;5114768;27;20494;-76
2022/10/26 00:28:32;;;;;;;9.82;6.15;;;;;;;10.14;100.00;101181.19;5115475;28;20044;-77
2022/10/26 00:34:19;;;;;;;11.73;6.20;;;;;;;10.27;100.00;101180.41;5113099;28;20510;-76
2022/10/26 00:36:44;;;;;;;9.23;5.80;;;;;;;10.31;100.00;101162.94;5113076;28;20111;-76
2022/10/26 00:39:12;;;;;;;11.17;5.60;;;;;;;10.43;100.00;101161.31;5116120;28;20684;-75
2022/10/26 00:45:03;;;;;;;12.25;6.68;;;;;;;10.44;100.00;101158.44;5113335;28;20188;-76
2022/10/26 00:47:36;;;;;;;11.05;5.70;;;;;;;10.44;100.00;101173.66;5113019;28;20415;-76
2022/10/26 00:50:09;;;;;;;10.07;5.72;;;;;;;10.45;100.00;101186.00;5094085;28;20440;-76
2022/10/26 00:55:57;;;;;;;9.45;5.30;;;;;;;10.50;100.00;101179.00;5115779;28;20062;-76
2022/10/26 00:58:24;;;;;;;11.48;5.97;;;;;;;10.54;100.00;101180.25;5113492;28;20107;-76
2022/10/26 01:00:50;;;;;;;11.25;6.00;;;;;;;10.60;100.00;101172.41;5115526;27;20532;-75
2022/10/26 01:06:40;;;;;;;9.50;5.75;;;;;;;10.59;100.00;101170.78;5111985;28;20047;-75
2022/10/26 01:09:05;;;;;;;10.82;6.68;;;;;;;10.61;100.00;101164.19;5115623;28;20036;-75
2022/10/26 01:11:30;;;;;;;11.30;5.95;;;;;;;10.61;100.00;101155.34;5113232;28;20030;-75
2022/10/26 01:13:58;;;;;;;8.63;5.85;;;;;;;10.71;100.00;101161.94;5094416;28;20597;-75
2022/10/26 01:16:48;;;;;;;10.00;6.03;;;;;;;10.80;100.00;101160.69;5113093;28;20035;-75
2022/10/26 01:19:22;;;;;;;9.95;6.05;;;;;;;10.71;100.00;101153.09;5115962;28;20043;-75
2022/10/26 01:21:53;;;;;;;11.10;6.85;;;;;;;10.74;100.00;101155.34;5094907;28;20027;-76
2022/10/26 01:24:28;;;;;;;14.70;6.65;;;;;;;10.70;100.00;101162.97;5096844;28;20031;-76
2022/10/26 01:27:30;;;;;;;12.00;6.95;;;;;;;10.72;100.00;101160.91;5094851;28;20031;-76
2022/10/26 01:33:32;;;;;;;10.18;6.10;;;;;;;10.73;100.00;101138.47;5111758;28;20043;-76
2022/10/26 01:36:29;;;;;;;10.88;6.70;;;;;;;10.82;100.00;101139.91;5097607;27;20031;-76
2022/10/26 01:39:05;;;;;;;11.27;6.78;;;;;;;10.75;100.00;101140.94;5106345;28;20051;-76
2022/10/26 01:41:43;;;;;;;11.85;6.93;;;;;;;10.75;100.00;101138.28;5094239;28;20024;-76
2022/10/26 01:44:32;;;;;;;11.38;6.75;;;;;;;10.79;100.00;101142.16;5087699;28;20032;-76
2022/10/26 01:47:00;;;;;;;15.05;6.70;;;;;;;10.80;100.00;101133.94;5092958;28;20059;-76
2022/10/26 01:49:30;;;;;;;11.55;6.80;;;;;;;10.79;100.00;101129.63;5115525;28;20035;-76
2022/10/26 01:51:55;;;;;;;12.65;6.93;;;;;;;10.81;100.00;101124.06;5093901;28;20344;-76
2022/10/26 01:54:20;;;;;;;14.47;7.23;;;;;;;10.81;100.00;101122.22;5093456;28;20258;-76
2022/10/26 01:56:51;;;;;;;10.27;6.82;;;;;;;10.88;100.00;101127.53;5112502;28;20274;-75
2022/10/26 01:59:28;;;;;;;11.18;6.63;;;;;;;10.83;100.00;101125.50;5112270;28;20028;-75
2022/10/26 02:02:20;;;;;;;10.68;6.72;;;;;;;10.73;100.00;101111.72;5095894;28;20528;-77
2022/10/26 02:04:49;;;;;;;10.52;5.65;;;;;;;10.80;100.00;101128.59;5093934;28;20020;-76
2022/10/26 02:10:42;;;;;;;11.00;6.57;;;;;;;10.62;100.00;101120.38;5112383;28;20039;-76
2022/10/26 02:13:20;;;;;;;13.65;7.00;;;;;;;10.60;100.00;101114.41;5115320;28;20130;-76
2022/10/26 02:15:52;;;;;;;8.93;6.05;;;;;;;10.62;100.00;101117.69;5093743;28;20024;-76
2022/10/26 02:18:38;;;;;;;9.70;5.28;;;;;;;10.65;100.00;101113.78;5114999;28;20141;-76
2022/10/26 02:21:12;;;;;;;10.02;6.45;;;;;;;10.64;100.00;101110.28;5111242;28;20039;-76
2022/10/26 02:23:42;;;;;;;9.55;5.82;;;;;;;10.67;100.00;101101.84;5114937;28;20054;-76
2022/10/26 02:29:31;;;;;;;11.75;5.75;;;;;;;10.69;100.00;101102.47;5111517;28;20077;-75
2022/10/26 02:31:56;;;;;;;10.52;5.85;;;;;;;10.74;100.00;101104.53;5110601;28;20032;-76
2022/10/26 02:34:26;;;;;;;10.35;5.97;;;;;;;10.71;100.00;101104.94;5111846;28;20031;-76
2022/10/26 02:40:17;;;;;;;9.63;5.20;;;;;;;10.78;100.00;101095.06;5111947;28;20042;-75
2022/10/26 02:42:44;;;;;;;13.35;6.80;;;;;;;10.72;100.00;101091.38;5114763;27;20096;-75
2022/10/26 02:45:12;;;;;;;14.88;6.38;;;;;;;10.77;100.00;101093.41;5111599;28;20019;-76
2022/10/26 02:47:37;;;;;;;10.45;5.75;;;;;;;10.69;100.00;101081.06;5114547;28;20484;-76
2022/10/26 02:53:34;;;;;;;10.25;6.43;;;;;;;10.64;100.00;101074.69;5111940;28;20086;-76
2022/10/26 02:56:06;;;;;;;9.05;6.00;;;;;;;10.67;100.00;101079.63;5093548;28;20486;-76
2022/10/26 02:58:37;;;;;;;9.77;5.60;;;;;;;10.69;100.00;101083.75;5114733;28;20035;-76
2022/10/26 03:01:03;;;;;;;12.73;6.18;;;;;;;10.68;100.00;101089.28;5108492;28;20052;-76
2022/10/26 03:03:28;;;;;;;11.38;5.78;;;;;;;10.63;100.00;101089.09;5114911;28;20028;-76
2022/10/26 03:05:53;;;;;;;13.20;7.18;;;;;;;10.62;100.00;101082.13;5095898;28;20096;-76
2022/10/26 03:08:19;;;;;;;12.32;5.82;;;;;;;10.70;100.00;101082.75;5114965;28;20088;-76
2022/10/26 03:10:45;;;;;;;10.67;6.03;;;;;;;10.60;100.00;101076.16;5095718;28;20497;-75
2022/10/26 03:13:11;;;;;;;12.98;6.38;;;;;;;10.62;100.00;101085.59;5114672;28;20273;-75
2022/10/26 03:15:37;;;;;;;11.32;5.63;;;;;;;10.58;100.00;101076.38;5114664;28;20114;-76
2022/10/26 03:18:03;;;;;;;10.35;5.85;;;;;;;10.62;100.00;101069.56;5117692;27;20095;-76
2022/10/26 03:20:29;;;;;;;12.10;5.20;;;;;;;10.64;100.00;101074.69;5114559;28;20031;-76
2022/10/26 03:22:55;;;;;;;9.82;5.43;;;;;;;10.60;100.00;101074.31;5117719;27;20086;-76
2022/10/26 03:25:22;;;;;;;9.43;5.68;;;;;;;10.62;100.00;101071.41;5114628;28;20064;-75
2022/10/26 03:31:09;;;;;;;10.38;5.10;;;;;;;10.66;100.00;101076.13;5115028;28;20051;-77
2022/10/26 03:33:34;;;;;;;12.50;5.87;;;;;;;10.63;100.00;101070.38;5096335;28;20020;-75
2022/10/26 03:35:59;;;;;;;10.27;5.33;;;;;;;10.67;100.00;101067.06;5117608;27;20368;-76
2022/10/26 03:38:25;;;;;;;12.85;5.25;;;;;;;10.69;100.00;101073.03;5114370;28;20273;-75
2022/10/26 03:40:50;;;;;;;10.40;5.18;;;;;;;10.67;100.00;101068.94;5117373;28;20067;-75
2022/10/26 03:43:16;;;;;;;7.00;4.50;;;;;;;10.66;100.00;101068.09;5096163;28;20391;-76
2022/10/26 03:45:41;;;;;;;8.77;4.82;;;;;;;10.65;100.00;101058.44;5114030;28;20036;-77
2022/10/26 03:48:06;;;;;;;8.27;4.40;;;;;;;10.71;100.00;101062.97;5117346;28;20032;-76
2022/10/26 03:50:32;;;;;;;9.85;5.07;;;;;;;10.74;100.00;101061.75;5114178;28;20357;-75
2022/10/26 03:52:57;;;;;;;8.45;4.82;;;;;;;10.68;100.00;101063.38;5117125;27;20067;-76
2022/10/26 03:55:22;;;;;;;11.70;5.17;;;;;;;10.68;100.00;101057.22;5114080;28;20109;-75
2022/10/26 03:57:47;;;;;;;8.68;4.47;;;;;;;10.66;100.00;101056.59;5114195;28;20601;-77
2022/10/26 04:00:15;;;;;;;8.50;4.32;;;;;;;10.67;100.00;101059.06;5098793;28;20039;-76
2022/10/26 04:02:42;;;;;;;11.20;4.90;;;;;;;10.59;100.00;101055.78;5113978;28;20030;-76
2022/10/26 04:05:08;;;;;;;9.20;4.70;;;;;;;10.58;100.00;101062.16;5116899;28;20049;-76
2022/10/26 04:10:55;;;;;;;12.05;4.72;;;;;;;10.57;100.00;101066.69;5112012;28;20081;-75
2022/10/26 04:13:20;;;;;;;9.37;4.53;;;;;;;10.58;100.00;101071.00;5113670;28;20055;-77
2022/10/26 04:15:46;;;;;;;9.77;5.07;;;;;;;10.60;100.00;101068.13;5098011;27;20289;-76
2022/10/26 04:21:34;;;;;;;8.90;4.28;;;;;;;10.65;100.00;101058.44;5113664;28;20272;-76
2022/10/26 04:23:59;;;;;;;7.65;4.28;;;;;;;10.65;100.00;101058.44;5113751;28;20450;-76
2022/10/26 04:26:24;;;;;;;7.22;4.13;;;;;;;10.62;100.00;101053.53;5095296;28;20043;-76
2022/10/26 04:28:49;;;;;;;9.15;4.55;;;;;;;10.66;100.00;101059.25;5116512;28;20051;-76
2022/10/26 04:31:15;;;;;;;9.87;4.87;;;;;;;10.73;100.00;101055.56;5095427;28;20376;-76
2022/10/26 04:33:40;;;;;;;8.40;3.95;;;;;;;10.73;100.00;101055.56;5116534;28;20269;-76
2022/10/26 04:36:06;;;;;;;10.25;4.50;;;;;;;10.75;100.00;101058.84;5095339;28;20055;-76
2022/10/26 04:38:31;;;;;;;7.00;4.10;;;;;;;10.78;100.00;101057.63;5113370;28;20032;-76
2022/10/26 04:40:56;;;;;;;9.27;4.60;;;;;;;10.81;100.00;101057.19;5116382;27;20062;-76
2022/10/26 04:46:43;;;;;;;7.05;4.30;;;;;;;10.79;100.00;101044.03;5113339;28;20689;-76
2022/10/26 04:49:09;;;;;;;11.97;4.70;;;;;;;10.89;100.00;101058.81;5111186;28;20123;-76
2022/10/26 04:54:55;;;;;;;7.70;4.35;;;;;;;10.87;100.00;101064.38;5113528;28;20498;-76
2022/10/26 04:57:21;;;;;;;6.70;4.20;;;;;;;10.83;100.00;101061.28;5094230;28;20048;-76
2022/10/26 04:59:46;;;;;;;6.97;4.40;;;;;;;10.88;100.00;101051.81;5113311;28;20634;-76
2022/10/26 05:02:11;;;;;;;7.45;4.78;;;;;;;10.90;100.00;101066.63;5113037;28;20092;-76
2022/10/26 05:04:36;;;;;;;9.13;4.35;;;;;;;10.88;100.00;101062.50;5116097;27;20549;-76
2022/10/26 05:07:02;;;;;;;11.27;4.30;;;;;;;10.95;100.00;101071.34;5113062;28;20036;-76
2022/10/26 05:09:27;;;;;;;12.18;5.05;;;;;;;10.93;100.00;101071.53;5116027;28;20301;-76
2022/10/26 05:11:52;;;;;;;8.40;4.70;;;;;;;10.96;100.00;101064.94;5094678;28;20416;-76
2022/10/26 05:14:17;;;;;;;9.03;4.10;;;;;;;10.98;100.00;101058.34;5112940;28;20270;-77
2022/10/26 05:16:43;;;;;;;8.15;4.25;;;;;;;11.00;100.00;101066.19;5094001;28;20286;-76
2022/10/26 05:19:09;;;;;;;10.98;4.20;;;;;;;11.05;100.00;101063.69;5094416;28;20384;-76
2022/10/26 05:21:34;;;;;;;9.13;4.05;;;;;;;11.08;100.00;101063.28;5115685;28;20042;-76
2022/10/26 05:23:59;;;;;;;9.57;4.13;;;;;;;11.12;100.00;101068.00;5112689;28;20360;-76
2022/10/26 05:26:25;;;;;;;12.70;4.00;;;;;;;11.11;100.00;101068.19;5097013;27;20088;-75
2022/10/26 05:28:50;;;;;;;7.45;4.30;;;;;;;11.09;100.00;101057.72;5113077;28;20073;-76
2022/10/26 05:31:16;;;;;;;10.13;4.35;;;;;;;11.13;100.00;101071.47;5094221;28;20156;-76
2022/10/26 05:33:41;;;;;;;7.80;4.32;;;;;;;11.08;100.00;101068.63;5115759;28;20040;-76
2022/10/26 05:36:06;;;;;;;7.17;3.87;;;;;;;11.10;100.00;101072.72;5094159;28;20138;-76
2022/10/26 05:38:32;;;;;;;9.52;4.30;;;;;;;11.13;100.00;101072.31;5115540;28;20296;-76
2022/10/26 05:40:58;;;;;;;7.35;4.70;;;;;;;11.13;100.00;101066.94;5094200;28;20041;-76
2022/10/26 05:43:24;;;;;;;6.63;4.13;;;;;;;11.20;100.00;101074.94;5112523;28;20073;-76
2022/10/26 05:45:50;;;;;;;11.88;5.07;;;;;;;11.14;100.00;101062.41;5115550;28;20044;-76
2022/10/26 05:48:15;;;;;;;6.07;4.15;;;;;;;11.17;100.00;101075.38;5112547;28;20457;-76
2022/10/26 05:50:41;;;;;;;12.00;4.88;;;;;;;11.22;100.00;101074.72;5115420;27;20044;-76
2022/10/26 05:53:06;;;;;;;9.13;4.70;;;;;;;11.23;100.00;101073.69;5112291;28;20020;-76
2022/10/26 05:55:32;;;;;;;6.75;3.95;;;;;;;11.23;100.00;101076.38;5112141;28;20119;-76
2022/10/26 06:01:49;;;;;;;7.95;3.67;;;;;;;11.21;100.00;101084.63;5110499;28;20190;-76
2022/10/26 06:04:32;;;;;;;5.53;4.25;;;;;;;11.23;100.00;101087.91;5085498;28;20628;-77
2022/10/26 06:10:19;;;;;;;10.75;4.47;;;;;;;11.27;100.00;101096.31;5110336;28;20050;-76
2022/10/26 06:12:44;;;;;;;11.88;4.90;;;;;;;11.23;100.00;101093.25;5112163;28;20019;-76
2022/10/26 06:15:32;;;;;;;8.40;4.03;;;;;;;11.25;100.00;101091.19;5093412;28;20035;-76
2022/10/26 06:18:20;;;;;;;11.18;4.30;;;;;;;11.29;100.00;101107.69;5093884;28;20420;-75
2022/10/26 06:21:39;;;;;;;11.57;3.95;;;;;;;11.27;100.00;101104.34;5115209;28;20553;-76
2022/10/26 06:27:41;;;;;;;8.25;4.25;;;;;;;11.27;100.00;101099.00;5009543;28;20037;-76
2022/10/26 06:33:28;;;;;;;7.85;3.80;;;;;;;11.25;100.00;101090.38;5012849;28;20128;-76
2022/10/26 06:36:15;;;;;;;8.23;4.03;;;;;;;11.18;100.00;101091.22;4996378;28;20026;-76
2022/10/26 06:38:43;;;;;;;8.32;4.13;;;;;;;11.10;100.00;101088.78;5056203;28;20157;-76
2022/10/26 06:41:10;;;;;;;9.95;4.40;;;;;;;11.05;100.00;101085.94;5096867;28;20494;-76
2022/10/26 06:43:36;;;;;;;7.35;3.83;;;;;;;11.07;100.00;101085.72;5115927;27;20383;-76
2022/10/26 06:46:15;;;;;;;7.85;3.40;;;;;;;11.09;100.00;101079.13;5117460;28;20069;-76
2022/10/26 06:48:55;;;;;;;7.43;3.78;;;;;;;11.17;100.00;101084.22;5115063;28;20027;-76
2022/10/26 06:51:22;;;;;;;7.75;4.10;;;;;;;11.18;100.00;101072.47;5096304;28;20132;-76
2022/10/26 06:54:17;;;;;;;6.25;3.50;;;;;;;11.35;100.00;101080.88;5096807;28;20027;-76
2022/10/26 06:56:44;;;;;;;8.98;4.13;;;;;;;11.43;100.00;101082.47;5118118;28;20494;-77
2022/10/26 06:59:28;;;;;;;7.05;4.28;;;;;;;11.47;100.00;101087.19;5114920;28;20028;-76
2022/10/26 07:01:54;;;;;;;9.20;4.32;;;;;;;11.70;100.00;101086.66;5095894;28;20051;-75
2022/10/26 07:04:19;;;;;;;7.40;4.43;;;;;;;11.76;100.00;101082.28;5096719;28;20019;-76
2022/10/26 07:06:44;;;;;;;6.70;4.27;;;;;;;11.71;100.00;101088.28;5114771;28;20273;-76
2022/10/26 07:09:09;;;;;;;7.13;4.28;;;;;;;11.74;100.00;101089.72;5117659;28;20297;-76
2022/10/26 07:11:35;;;;;;;7.27;4.20;;;;;;;11.69;100.00;101093.03;5096562;28;20035;-76
2022/10/26 07:14:00;;;;;;;7.30;4.10;;;;;;;11.71;100.00;101092.81;5117954;28;20293;-76
2022/10/26 07:16:26;;;;;;;8.90;4.20;;;;;;;11.89;100.00;101102.88;5114829;28;20024;-76
2022/10/26 07:18:52;;;;;;;10.40;4.45;;;;;;;12.15;100.00;101112.59;5114869;28;20348;-76
2022/10/26 07:21:17;;;;;;;9.60;4.65;;;;;;;12.93;100.00;101104.84;5117876;28;20111;-77
2022/10/26 07:23:42;;;;;;;9.50;4.63;;;;;;;13.35;100.00;101115.75;5096590;28;20051;-77
2022/10/26 07:26:07;;;;;;;8.53;4.00;;;;;;;13.33;100.00;101121.38;5117722;28;20315;-76
2022/10/26 07:28:35;;;;;;;9.43;4.13;;;;;;;13.31;100.00;101118.09;5114447;28;20285;-76
2022/10/26 07:31:00;;;;;;;5.63;3.75;;;;;;;13.21;100.00;101134.69;5096204;28;20330;-76
2022/10/26 07:33:25;;;;;;;7.07;4.10;;;;;;;13.07;100.00;101148.47;5117615;28;20367;-77
2022/10/26 07:35:51;;;;;;;7.43;4.13;;;;;;;12.95;100.00;101132.28;5114562;28;20110;-76
2022/10/26 07:38:17;;;;;;;8.00;4.30;;;;;;;13.00;100.00;101129.75;5117633;27;20284;-76
2022/10/26 07:40:42;;;;;;;6.67;4.30;;;;;;;13.01;100.00;101131.41;5114590;28;20061;-76
2022/10/26 07:43:07;;;;;;;10.47;4.53;;;;;;;13.09;100.00;101131.09;5113853;27;20280;-77
2022/10/26 07:45:32;;;;;;;8.40;3.90;;;;;;;13.43;100.00;101132.38;5098414;28;20303;-77
2022/10/26 07:47:58;;;;;;;8.60;4.13;;;;;;;13.74;100.00;101138.59;5095841;28;20039;-77
2022/10/26 07:50:24;;;;;;;11.15;4.15;;;;;;;13.71;100.00;101153.31;5117188;28;20289;-76
2022/10/26 07:52:49;;;;;;;7.85;4.30;;;;;;;13.97;100.00;101167.44;5114237;28;20023;-77
2022/10/26 07:55:15;;;;;;;6.47;4.20;;;;;;;14.01;100.00;101169.44;5115947;28;20019;-77
2022/10/26 07:57:40;;;;;;;7.25;3.75;;;;;;;13.85;100.00;101170.91;5115128;28;20040;-76
2022/10/26 08:00:07;;;;;;;8.23;3.58;;;;;;;13.73;100.00;101170.03;5114129;28;20032;-77
2022/10/26 08:02:33;;;;;;;8.57;3.95;;;;;;;13.67;100.00;101165.56;5117153;28;20054;-76
2022/10/26 08:04:58;;;;;;;5.68;3.85;;;;;;;13.83;100.00;101167.63;5114125;28;20035;-76
2022/10/26 08:07:25;;;;;;;7.43;3.60;;;;;;;13.90;100.00;101168.38;5094961;28;20044;-76
2022/10/26 08:09:50;;;;;;;6.75;3.90;;;;;;;13.98;100.00;101171.78;5095557;28;20265;-76
2022/10/26 08:15:37;;;;;;;12.07;3.75;;;;;;;14.27;100.00;101179.81;5114212;28;20058;-76
2022/10/26 08:21:24;;;;;;;4.57;3.53;;;;;;;14.89;100.00;101171.38;5114200;28;20042;-76
2022/10/26 08:27:13;;;;;;;8.10;3.75;;;;;;;15.03;100.00;101182.72;5114044;28;20109;-77
2022/10/26 08:36:24;;;;;;;8.38;3.67;;;;;;;15.43;100.00;101190.91;5113489;28;20046;-77
2022/10/26 08:38:49;;;;;;;7.35;3.42;;;;;;;15.31;100.00;101185.50;5113472;28;20027;-77
2022/10/26 08:44:44;;;;;;;7.72;3.30;;;;;;;15.50;100.00;101199.66;5113656;28;20609;-76
2022/10/26 08:47:09;;;;;;;;;;;;;;;15.56;100.00;101206.78;5097862;28;20051;-77
2022/10/26 08:53:07;;;;;;;5.22;3.22;;;;;;;15.58;100.00;101191.22;5113582;28;20533;-77
2022/10/26 08:55:41;;;;;;;8.23;3.28;;;;;;;15.57;100.00;101197.66;5112916;28;20026;-77
2022/10/26 08:58:13;;;;;;;7.75;3.30;;;;;;;15.62;100.00;101184.34;5113332;28;20082;-77
2022/10/26 09:04:02;;;;;;;4.68;2.97;;;;;;;15.78;100.00;101167.38;5111300;28;20046;-77
2022/10/26 09:07:11;;;;;;;5.10;3.47;;;;;;;15.86;100.00;101174.25;5116093;28;20498;-77
2022/10/26 09:13:08;;;;;;;9.52;3.38;;;;;;;16.62;100.00;101189.13;5010830;28;20048;-77
2022/10/26 09:15:47;;;;;;;11.07;3.53;;;;;;;16.56;100.00;101202.78;5090545;28;20101;-77
2022/10/26 09:18:29;;;;;;;6.03;3.00;;;;;;;16.43;100.00;101207.41;5115965;28;20043;-77
2022/10/26 09:24:29;;;;;;;4.45;3.03;;;;;;;16.41;100.00;101217.63;5111038;28;20108;-75
2022/10/26 09:30:19;;;;;;;7.22;2.75;;;;;;;16.73;100.00;101242.25;5112869;28;20042;-77
2022/10/26 09:32:59;;;;;;;5.78;2.78;;;;;;;16.98;100.00;101233.72;5094336;28;20464;-77
2022/10/26 09:35:30;;;;;;;10.38;3.13;;;;;;;17.02;100.00;101242.16;5115596;28;20044;-77
2022/10/26 09:41:39;;;;;;;7.82;3.50;;;;;;;17.03;100.00;101260.81;5112570;28;20141;-78
2022/10/26 09:44:18;;;;;;;6.80;3.25;;;;;;;17.00;100.00;101260.50;5094000;28;20032;-76
2022/10/26 09:46:55;;;;;;;8.70;3.40;;;;;;;16.85;100.00;101263.78;5115631;28;20044;-77
2022/10/26 09:52:43;;;;;;;6.63;3.00;;;;;;;16.69;100.00;101259.19;5112728;28;20043;-77
2022/10/26 09:55:12;;;;;;;7.03;3.67;;;;;;;16.64;100.00;101259.06;5112290;28;20031;-76
2022/10/26 09:57:40;;;;;;;6.15;3.40;;;;;;;16.70;100.00;101264.34;5115049;28;20123;-76
2022/10/26 10:00:12;;;;;;;5.35;2.90;;;;;;;16.79;100.00;101253.97;5111843;28;20059;-77
2022/10/26 10:06:18;;;;;;;8.23;3.45;;;;;;;17.08;100.00;101287.13;5112183;28;20113;-76
2022/10/26 10:09:05;;;;;;;6.82;3.25;;;;;;;17.19;100.00;101274.59;5118389;27;20044;-76
2022/10/26 10:14:58;;;;;;;5.68;2.70;;;;;;;17.37;100.00;101287.03;5115403;28;20030;-76
2022/10/26 10:20:57;;;;;;;5.82;2.83;;;;;;;17.54;100.00;101304.84;5116119;28;20039;-76
2022/10/26 10:23:51;;;;;;;5.75;3.03;;;;;;;17.58;100.00;101311.38;5097437;28;20086;-76
2022/10/26 10:26:16;;;;;;;8.40;3.22;;;;;;;17.63;100.00;101316.03;5118817;28;20502;-75
2022/10/26 10:32:03;;;;;;;7.05;2.92;;;;;;;17.46;100.00;101318.78;5116250;28;20051;-76
2022/10/26 10:34:30;;;;;;;8.37;2.90;;;;;;;17.47;100.00;101325.03;5115596;28;20390;-76
2022/10/26 10:36:56;;;;;;;6.30;2.80;;;;;;;17.50;100.00;101322.63;5118558;27;20281;-76
2022/10/26 10:42:45;;;;;;;8.40;2.97;;;;;;;17.55;100.00;101322.69;5112095;28;20154;-77
2022/10/26 10:48:31;;;;;;;6.40;3.00;;;;;;;17.74;100.00;101341.41;5115597;28;20050;-76
2022/10/26 10:51:11;;;;;;;8.25;3.38;;;;;;;18.51;100.00;101352.13;5115205;28;20027;-76
2022/10/26 10:53:44;;;;;;;5.40;2.58;;;;;;;19.31;100.00;101351.25;5115349;28;20034;-77
2022/10/26 10:59:54;;;;;;;4.25;2.55;;;;;;;18.66;100.00;101360.44;5115051;28;20038;-77
2022/10/26 11:06:00;;;;;;;8.48;2.90;;;;;;;18.19;100.00;101365.53;5116047;27;20054;-76
2022/10/26 11:12:16;;;;;;;5.15;2.40;;;;;;;18.26;100.00;101377.81;5113315;28;20088;-76
2022/10/26 11:14:45;;;;;;;5.05;3.20;;;;;;;18.08;100.00;101378.13;5099362;28;20455;-76
2022/10/26 11:17:56;;;;;;;7.50;2.78;;;;;;;18.11;100.00;101384.91;5116783;27;20479;-76
2022/10/26 11:23:49;;;;;;;4.38;3.25;;;;;;;18.44;100.00;101394.81;5115082;28;20058;-78
2022/10/26 11:26:23;;;;;;;7.95;3.88;;;;;;;18.55;100.00;101380.34;5114407;28;20588;-78
2022/10/26 11:32:18;;;;;;;6.78;4.38;;;;;;;18.78;100.00;101392.78;5112652;28;20388;-78
2022/10/26 11:38:43;;;;;;;6.25;3.80;;;;;;;19.63;100.00;101408.22;5114721;28;20379;-77
2022/10/26 11:41:35;;;;;;;5.80;3.35;;;;;;;19.68;100.00;101407.47;5117397;27;20054;-77
2022/10/26 11:44:10;;;;;;;5.38;3.25;;;;;;;19.31;100.00;101391.13;5114345;28;20035;-78
2022/10/26 11:50:14;;;;;;;6.60;3.58;;;;;;;18.85;100.00;101407.78;5113793;28;20126;-77
2022/10/26 11:52:47;;;;;;;5.22;3.28;;;;;;;18.63;100.00;101392.63;5103564;28;20066;-77
2022/10/26 11:58:36;;;;;;;5.82;3.17;;;;;;;18.51;100.00;101403.59;5114487;28;20132;-77
2022/10/26 12:01:06;;;;;;;7.03;3.08;;;;;;;18.47;100.00;101411.38;5114162;28;20028;-77
2022/10/26 12:10:36;;;;;;;8.13;3.17;;;;;;;18.46;100.00;101407.03;5114136;28;20062;-78
2022/10/26 12:13:34;;;;;;;7.15;3.22;;;;;;;18.44;100.00;101402.94;5095711;28;20028;-77
2022/10/26 12:16:17;;;;;;;6.13;2.83;;;;;;;18.55;100.00;101410.94;5095269;28;20047;-78
2022/10/26 12:26:12;;;;;;;7.47;2.75;;;;;;;19.07;100.00;101428.59;5113814;28;20727;-78
2022/10/26 12:28:39;;;;;;;3.65;2.20;;;;;;;19.01;100.00;101424.19;5094567;28;20062;-78
2022/10/26 12:31:35;;;;;;;5.45;2.45;;;;;;;19.26;100.00;101439.88;5112809;28;20481;-77
2022/10/26 12:34:02;;;;;;;5.18;2.55;;;;;;;19.84;100.00;101436.31;5116653;27;20057;-79
2022/10/26 12:36:49;;;;;;;7.57;3.15;;;;;;;20.36;100.00;101440.97;5113631;28;20027;-78
2022/10/26 12:39:35;;;;;;;3.90;2.50;;;;;;;20.41;99.57;101432.88;5094585;28;20035;-77
2022/10/26 12:45:22;;;;;;;7.40;2.60;;;;;;;20.10;96.52;101440.84;5113577;28;20057;-77
2022/10/26 12:47:47;;;;;;;4.95;1.90;;;;;;;19.84;97.81;101444.47;5113180;28;20032;-76
2022/10/26 12:50:13;;;;;;;4.60;2.00;;;;;;;19.96;97.08;101433.44;5094286;28;20044;-76
2022/10/26 12:52:55;;;;;;;4.87;2.20;;;;;;;20.15;95.77;101425.66;5113308;28;20456;-76
2022/10/26 13:02:35;;;;;;;6.13;2.30;;;;;;;21.72;86.25;101427.97;5113508;28;20053;-78
2022/10/26 13:05:18;;;;;;;7.68;2.45;;;;;;;21.39;86.67;101432.84;5112953;28;20016;-76
2022/10/26 13:07:45;;;;;;;6.55;2.30;;;;;;;21.45;84.55;101434.53;5115865;28;20070;-74
2022/10/26 13:10:10;;;;;;;5.88;2.00;;;;;;;21.45;83.67;101429.06;5112900;28;20077;-74
2022/10/26 13:12:48;;;;;;;3.00;1.83;;;;;;;21.71;86.97;101431.78;5113059;28;20066;-74
2022/10/26 13:15:32;;;;;;;4.85;2.05;;;;;;;21.82;86.75;101438.84;5105070;28;20492;-74
2022/10/26 13:18:06;;;;;;;8.07;1.95;;;;;;;21.94;83.17;101436.63;5112798;28;20042;-74
2022/10/26 13:20:35;;;;;;;5.60;2.47;;;;;;;21.95;82.09;101447.25;5115997;27;20046;-74
2022/10/26 13:23:02;;;;;;;4.20;1.83;;;;;;;22.16;79.49;101452.69;5094565;28;20164;-75
2022/10/26 13:25:29;;;;;;;6.97;2.30;;;;;;;22.37;78.83;101448.00;5115856;27;20048;-75
2022/10/26 13:28:05;;;;;;;3.78;1.67;;;;;;;22.35;79.57;101444.75;5112889;28;20030;-76
2022/10/26 13:30:32;;;;;;;6.35;2.00;;;;;;;22.43;78.17;101458.59;5113075;27;20031;-75
2022/10/26 13:32:59;;;;;;;4.40;1.88;;;;;;;22.38;76.20;101457.81;5114852;28;20034;-75
2022/10/26 13:38:46;;;;;;;5.18;2.13;;;;;;;22.20;77.60;101468.22;5113055;28;20082;-75
2022/10/26 13:41:20;;;;;;;3.67;1.73;;;;;;;21.74;82.77;101463.91;5094250;28;20059;-75
2022/10/26 13:43:46;;;;;;;5.93;2.00;;;;;;;21.17;80.85;101460.31;5115600;27;20082;-75
2022/10/26 13:46:23;;;;;;;6.57;2.22;;;;;;;20.79;85.57;101458.84;5112360;28;20086;-75
2022/10/26 13:48:51;;;;;;;4.07;1.85;;;;;;;20.63;85.13;101468.84;5115601;28;20043;-75
2022/10/26 13:51:23;;;;;;;3.38;1.88;;;;;;;20.38;88.74;101468.69;5112381;28;20027;-74
2022/10/26 13:54:01;;;;;;;3.08;1.90;;;;;;;20.07;88.90;101465.81;5112757;28;20030;-74
2022/10/26 13:56:34;;;;;;;3.78;1.90;;;;;;;19.84;92.12;101462.66;5113339;28;20016;-74
2022/10/26 14:02:24;;;;;;;7.32;2.55;;;;;;;19.53;94.43;101465.13;5112289;28;20035;-74
2022/10/26 14:08:17;;;;;;;4.90;1.88;;;;;;;19.38;94.13;101478.53;5112685;28;20046;-74
2022/10/26 14:10:46;;;;;;;5.97;2.20;;;;;;;19.27;93.91;101474.88;5112135;28;20019;-74
2022/10/26 14:13:15;;;;;;;4.47;2.00;;;;;;;19.26;95.42;101473.25;5115139;28;20561;-74
2022/10/26 14:19:02;;;;;;;7.13;1.70;;;;;;;19.13;96.35;101479.91;5110519;28;20051;-73
2022/10/26 14:21:28;;;;;;;3.40;2.00;;;;;;;19.13;97.75;101498.06;5093690;28;20020;-74
2022/10/26 14:23:58;;;;;;;4.70;1.75;;;;;;;19.08;96.00;101493.41;5115109;28;20043;-75
2022/10/26 14:29:46;;;;;;;3.70;1.90;;;;;;;18.99;95.55;101505.75;5111020;28;20066;-75
2022/10/26 14:32:30;;;;;;;4.55;1.80;;;;;;;18.95;95.91;101514.66;5092555;28;20024;-75
2022/10/26 14:34:56;;;;;;;3.55;1.85;;;;;;;18.97;95.68;101517.94;5114762;28;20039;-75
2022/10/26 14:37:35;;;;;;;6.70;2.03;;;;;;;19.01;95.90;101532.63;5093648;28;20497;-75
2022/10/26 14:40:01;;;;;;;7.07;2.10;;;;;;;18.97;96.44;101526.06;5111920;28;20112;-75
2022/10/26 14:42:32;;;;;;;5.10;1.98;;;;;;;18.89;96.46;101538.19;5114945;28;20059;-75
2022/10/26 14:44:59;;;;;;;3.38;2.08;;;;;;;18.94;97.25;101538.25;5111622;28;20054;-75
2022/10/26 14:47:34;;;;;;;3.95;2.00;;;;;;;18.99;96.97;101538.28;5114759;27;20067;-75
2022/10/26 14:50:00;;;;;;;6.05;1.85;;;;;;;19.00;96.51;101537.22;5111660;28;20050;-75